Time;durP1;ratioP1;P1;durP2;ratioP2;P2;SDS_P1;SDS_P2;PMS_P1;PMS_P2;Temp;Humidity;BMP_temperature;BMP_pressure;BME280_temperature;BME280_humidity;BME280_pressure;Samples;Min_cycle;Max_cycle;Signal;HPM_P1;HPM_P2
2023/01/13 00:02:15;;;;;;;10.27;7.10;;;0.60;71.70;;;;;;5051184;28;20033;-58
2023/01/13 00:04:41;;;;;;;11.25;8.60;;;0.60;71.70;;;;;;5052205;28;20487;-57
2023/01/13 00:07:07;;;;;;;8.80;7.30;;;0.70;71.60;;;;;;5051945;28;20068;-58
2023/01/13 00:09:32;;;;;;;10.32;8.13;;;0.80;71.60;;;;;;5052331;28;20120;-58
2023/01/13 00:11:58;;;;;;;10.70;8.73;;;0.80;71.40;;;;;;5062095;28;20033;-56
2023/01/13 00:14:25;;;;;;;11.10;7.97;;;0.90;71.30;;;;;;5051652;28;20039;-55
2023/01/13 00:16:51;;;;;;;19.75;10.75;;;0.90;71.10;;;;;;5050538;28;20093;-58
2023/01/13 00:19:17;;;;;;;13.85;8.45;;;0.90;71.00;;;;;;5048609;28;20029;-58
2023/01/13 00:21:42;;;;;;;11.85;8.00;;;0.90;70.80;;;;;;5052149;28;20376;-58
2023/01/13 00:24:09;;;;;;;9.68;7.57;;;1.00;70.80;;;;;;5053723;28;20076;-61
2023/01/13 00:26:35;;;;;;;12.93;8.65;;;0.90;70.60;;;;;;5051698;28;20377;-61
2023/01/13 00:29:01;;;;;;;10.57;8.20;;;0.90;70.50;;;;;;5048834;28;20037;-60
2023/01/13 00:31:28;;;;;;;11.38;8.05;;;0.90;70.60;;;;;;5053901;28;20040;-58
2023/01/13 00:33:58;;;;;;;11.82;9.00;;;0.90;70.70;;;;;;5051611;28;20585;-57
2023/01/13 00:36:24;;;;;;;9.38;7.40;;;0.90;70.60;;;;;;5043851;28;20044;-61
2023/01/13 00:38:49;;;;;;;11.93;8.80;;;0.80;70.70;;;;;;5051811;28;20083;-58
2023/01/13 00:41:19;;;;;;;12.63;8.60;;;0.80;70.80;;;;;;5051607;28;20356;-61
2023/01/13 00:43:46;;;;;;;9.00;7.28;;;0.80;70.60;;;;;;5053038;28;20524;-60
2023/01/13 00:46:13;;;;;;;11.95;8.30;;;0.70;70.50;;;;;;5035170;28;20416;-61
2023/01/13 00:48:39;;;;;;;8.63;7.10;;;0.70;70.60;;;;;;5043652;28;20037;-62
2023/01/13 00:51:10;;;;;;;9.25;7.53;;;0.70;70.90;;;;;;5051301;28;20029;-56
2023/01/13 00:53:39;;;;;;;12.45;7.75;;;0.70;71.00;;;;;;5051802;28;20041;-57
2023/01/13 00:56:08;;;;;;;10.45;7.70;;;0.70;71.00;;;;;;5051914;28;20025;-58
2023/01/13 00:58:35;;;;;;;10.65;7.97;;;0.80;71.10;;;;;;5049530;28;20359;-61
2023/01/13 01:01:06;;;;;;;12.82;9.02;;;0.80;71.10;;;;;;5056913;28;20034;-59
2023/01/13 01:03:32;;;;;;;10.85;7.95;;;0.80;70.90;;;;;;5051530;28;20037;-59
2023/01/13 01:06:06;;;;;;;10.82;7.72;;;0.90;70.90;;;;;;5051943;28;20102;-58
2023/01/13 01:08:33;;;;;;;10.65;7.35;;;0.90;70.90;;;;;;5051559;28;20020;-59
2023/01/13 01:11:05;;;;;;;10.35;7.45;;;0.90;70.90;;;;;;5057275;28;20529;-56
2023/01/13 01:13:31;;;;;;;12.82;8.70;;;1.00;70.80;;;;;;5046429;28;20044;-55
2023/01/13 01:15:57;;;;;;;9.63;7.22;;;1.00;70.70;;;;;;5050153;28;20053;-58
2023/01/13 01:18:22;;;;;;;9.52;7.00;;;1.00;70.70;;;;;;5049452;28;20084;-58
2023/01/13 01:20:48;;;;;;;10.02;7.40;;;1.00;70.70;;;;;;5050846;28;20507;-55
2023/01/13 01:23:14;;;;;;;10.70;7.72;;;1.00;70.40;;;;;;5048425;28;20091;-56
2023/01/13 01:25:39;;;;;;;11.07;8.10;;;0.90;70.20;;;;;;5057603;28;20079;-59
2023/01/13 01:28:05;;;;;;;11.00;8.48;;;0.90;70.20;;;;;;5050225;28;20021;-59
2023/01/13 01:30:31;;;;;;;11.80;8.38;;;0.80;70.00;;;;;;5057776;28;20383;-48
2023/01/13 01:32:56;;;;;;;9.40;8.15;;;0.70;70.00;;;;;;5051009;28;20124;-48
2023/01/13 01:35:23;;;;;;;9.30;7.38;;;0.50;69.90;;;;;;5050510;28;20059;-50
2023/01/13 01:37:49;;;;;;;11.18;7.60;;;0.40;70.20;;;;;;5048466;28;20116;-48
2023/01/13 01:40:15;;;;;;;11.43;7.97;;;0.20;70.50;;;;;;5049727;28;20111;-52
2023/01/13 01:45:29;;;;;;;7.57;6.55;;;0.10;71.00;;;;;;5050571;28;20394;-61
2023/01/13 01:48:00;;;;;;;9.13;6.63;;;0.10;71.50;;;;;;5051132;28;20060;-57
2023/01/13 01:50:27;;;;;;;8.73;6.97;;;0.10;71.50;;;;;;5048508;28;20065;-57
2023/01/13 01:52:59;;;;;;;9.50;7.07;;;0.00;71.40;;;;;;5042354;28;20041;-53
2023/01/13 01:55:35;;;;;;;10.20;7.13;;;0.10;71.50;;;;;;5049437;28;20037;-48
2023/01/13 01:58:04;;;;;;;9.93;7.70;;;0.10;71.60;;;;;;5057251;28;20021;-56
2023/01/13 02:00:30;;;;;;;8.77;7.30;;;0.10;71.80;;;;;;5051485;28;20029;-57
2023/01/13 02:02:57;;;;;;;10.25;7.47;;;0.10;71.80;;;;;;5050357;28;20041;-56
2023/01/13 02:05:23;;;;;;;10.35;7.53;;;0.10;71.70;;;;;;5052433;28;20037;-53
2023/01/13 02:07:52;;;;;;;11.02;7.20;;;0.10;71.60;;;;;;5040750;28;20040;-55
2023/01/13 02:10:21;;;;;;;11.60;7.90;;;0.10;71.60;;;;;;5049758;28;20032;-54
2023/01/13 02:12:49;;;;;;;10.00;6.93;;;0.10;71.50;;;;;;5059830;28;20463;-54
2023/01/13 02:15:19;;;;;;;10.43;8.20;;;0.00;71.30;;;;;;5050035;28;20458;-50
2023/01/13 02:18:02;;;;;;;12.50;8.02;;;0.00;71.40;;;;;;5050665;28;20052;-60
2023/01/13 02:20:43;;;;;;;11.80;8.15;;;-0.20;71.20;;;;;;5044070;28;20116;-55
2023/01/13 02:26:20;;;;;;;9.02;6.65;;;-0.40;71.90;;;;;;5044186;28;20039;-55
2023/01/13 02:32:17;;;;;;;8.88;7.07;;;-0.50;72.40;;;;;;5057488;28;20032;-58
2023/01/13 02:34:52;;;;;;;10.20;8.00;;;-0.60;72.50;;;;;;5047235;28;20490;-57
2023/01/13 02:37:29;;;;;;;8.65;6.63;;;-0.70;72.60;;;;;;5049858;28;20095;-58
2023/01/13 02:40:01;;;;;;;9.15;7.43;;;-0.70;72.80;;;;;;5050121;28;20036;-57
2023/01/13 02:45:34;;;;;;;6.57;5.88;;;-0.80;73.10;;;;;;5049580;28;20039;-58
2023/01/13 02:48:02;;;;;;;10.02;6.78;;;-0.90;73.10;;;;;;5050231;28;20073;-59
2023/01/13 02:50:41;;;;;;;8.15;6.40;;;-0.90;73.50;;;;;;5054503;28;20029;-58
2023/01/13 02:53:17;;;;;;;10.32;7.60;;;-0.80;73.80;;;;;;5049659;28;20036;-58
2023/01/13 02:55:47;;;;;;;7.55;6.38;;;-0.80;73.90;;;;;;5053668;28;20512;-57
2023/01/13 02:58:17;;;;;;;7.88;6.63;;;-0.70;73.70;;;;;;5051781;28;20128;-57
2023/01/13 03:00:44;;;;;;;7.13;6.03;;;-0.70;73.80;;;;;;5041024;28;20053;-59
2023/01/13 03:03:10;;;;;;;8.30;7.07;;;-0.70;73.70;;;;;;5049995;28;20051;-57
2023/01/13 03:05:38;;;;;;;7.95;6.93;;;-0.60;73.80;;;;;;5050311;28;20033;-58
2023/01/13 03:08:14;;;;;;;9.50;7.15;;;-0.50;73.70;;;;;;5045869;28;20037;-58
2023/01/13 03:10:47;;;;;;;9.50;6.82;;;-0.40;73.60;;;;;;5053250;28;20108;-58
2023/01/13 03:13:43;;;;;;;7.22;6.13;;;-0.40;73.40;;;;;;5047110;28;20063;-58
2023/01/13 03:16:17;;;;;;;8.15;5.90;;;-0.30;73.50;;;;;;5046267;28;20017;-57
2023/01/13 03:18:58;;;;;;;6.88;6.03;;;-0.20;73.40;;;;;;5044196;28;20029;-59
2023/01/13 03:21:39;;;;;;;7.83;6.30;;;-0.10;73.00;;;;;;5049464;28;20025;-57
2023/01/13 03:24:12;;;;;;;7.30;5.97;;;-0.10;72.80;;;;;;5058710;28;20115;-58
2023/01/13 03:27:26;;;;;;;9.27;6.68;;;0.00;72.90;;;;;;5052597;28;20029;-58
2023/01/13 03:29:58;;;;;;;9.55;6.85;;;0.00;72.60;;;;;;5037180;28;20090;-57
2023/01/13 03:32:25;;;;;;;9.90;6.15;;;0.10;72.60;;;;;;5039989;28;20033;-58
2023/01/13 03:34:58;;;;;;;6.70;6.00;;;0.10;72.50;;;;;;5040743;28;20025;-57
2023/01/13 03:37:33;;;;;;;8.15;6.45;;;0.20;72.40;;;;;;5057635;28;20503;-58
2023/01/13 03:40:06;;;;;;;8.48;6.68;;;0.30;72.30;;;;;;5052906;28;20450;-57
2023/01/13 03:42:33;;;;;;;8.45;6.88;;;0.30;72.20;;;;;;5043622;28;20049;-58
2023/01/13 03:45:26;;;;;;;7.63;6.47;;;0.40;72.20;;;;;;5044204;28;20095;-58
2023/01/13 03:47:55;;;;;;;8.38;6.65;;;0.40;71.90;;;;;;5042593;28;20123;-55
2023/01/13 03:50:26;;;;;;;9.48;6.97;;;0.50;71.90;;;;;;5053981;28;20041;-56
2023/01/13 03:52:57;;;;;;;7.97;6.88;;;0.60;71.80;;;;;;5044473;28;20036;-53
2023/01/13 03:55:30;;;;;;;7.88;6.47;;;0.60;71.60;;;;;;5049298;28;20037;-55
2023/01/13 03:58:13;;;;;;;8.43;6.32;;;0.60;71.30;;;;;;5051595;28;20390;-53
2023/01/13 04:00:49;;;;;;;8.07;6.53;;;0.70;71.10;;;;;;5051370;28;20021;-59
2023/01/13 04:03:24;;;;;;;8.13;6.82;;;0.70;70.90;;;;;;5052024;28;20040;-59
2023/01/13 04:05:56;;;;;;;10.05;7.75;;;0.70;70.90;;;;;;5052373;28;20025;-59
2023/01/13 04:08:27;;;;;;;10.75;8.18;;;0.70;70.70;;;;;;5050086;28;20029;-56
2023/01/13 04:10:56;;;;;;;10.65;8.30;;;0.70;70.40;;;;;;5052419;28;20041;-58
2023/01/13 04:13:25;;;;;;;9.98;7.10;;;0.60;70.00;;;;;;5052189;28;20054;-59
2023/01/13 04:15:50;;;;;;;9.50;7.80;;;0.50;70.00;;;;;;5051260;28;20116;-58
2023/01/13 04:18:17;;;;;;;10.55;8.05;;;0.30;70.00;;;;;;5047817;28;20103;-58
2023/01/13 04:20:46;;;;;;;10.27;7.88;;;0.20;70.30;;;;;;5052392;28;20090;-58
2023/01/13 04:23:12;;;;;;;10.48;7.95;;;0.20;70.80;;;;;;5050678;28;20059;-59
2023/01/13 04:25:39;;;;;;;8.25;7.10;;;0.20;71.00;;;;;;5056636;28;20032;-57
2023/01/13 04:28:04;;;;;;;9.43;7.30;;;0.10;71.10;;;;;;5051368;28;20033;-57
2023/01/13 04:30:30;;;;;;;10.40;7.22;;;0.20;71.20;;;;;;5053251;28;20032;-54
2023/01/13 04:32:56;;;;;;;9.98;7.78;;;0.20;71.20;;;;;;5049365;28;20036;-54
2023/01/13 04:35:21;;;;;;;8.65;7.30;;;0.30;71.10;;;;;;5051517;28;20071;-56
2023/01/13 04:37:47;;;;;;;9.77;8.60;;;0.30;71.10;;;;;;5053450;28;20021;-54
2023/01/13 04:40:13;;;;;;;10.88;8.13;;;0.40;71.10;;;;;;5051668;28;20029;-57
2023/01/13 04:42:38;;;;;;;11.70;8.63;;;0.40;70.80;;;;;;5051046;28;20067;-61
2023/01/13 04:45:05;;;;;;;10.43;8.68;;;0.40;70.60;;;;;;5047604;28;20136;-58
2023/01/13 04:47:30;;;;;;;9.40;7.95;;;0.40;70.40;;;;;;5046742;28;20040;-60
2023/01/13 04:49:56;;;;;;;9.20;7.40;;;0.40;70.40;;;;;;5059201;28;20037;-59
2023/01/13 04:52:22;;;;;;;10.75;8.20;;;0.40;70.50;;;;;;5050832;28;20028;-57
2023/01/13 04:54:47;;;;;;;11.90;9.30;;;0.30;70.50;;;;;;5051428;28;20029;-56
2023/01/13 04:57:13;;;;;;;11.07;8.55;;;0.30;70.30;;;;;;5050813;28;20036;-56
2023/01/13 04:59:40;;;;;;;11.20;8.32;;;0.30;70.30;;;;;;5050863;28;20455;-56
2023/01/13 05:02:07;;;;;;;12.48;9.10;;;0.10;70.00;;;;;;5045202;28;20021;-57
2023/01/13 05:04:33;;;;;;;14.38;9.18;;;0.10;70.30;;;;;;5050002;28;20036;-54
2023/01/13 05:06:59;;;;;;;9.90;7.97;;;0.00;70.70;;;;;;5038742;28;20055;-59
2023/01/13 05:09:25;;;;;;;10.48;8.25;;;0.00;70.90;;;;;;5043334;28;20406;-59
2023/01/13 05:17:22;;;;;;;11.65;8.35;;;0.00;71.20;;;;;;5049478;28;20091;-58
2023/01/13 05:19:48;;;;;;;10.02;8.82;;;0.10;71.20;;;;;;5049079;28;20056;-56
2023/01/13 05:27:42;;;;;;;12.90;10.10;;;0.20;70.80;;;;;;5055795;28;20402;-57
2023/01/13 05:30:09;;;;;;;12.23;9.38;;;0.20;70.30;;;;;;5053301;28;20028;-58
2023/01/13 05:32:34;;;;;;;12.55;8.77;;;0.20;70.30;;;;;;5046593;28;20025;-58
2023/01/13 05:35:00;;;;;;;11.70;9.43;;;0.10;70.50;;;;;;5041351;28;20052;-59
2023/01/13 05:37:26;;;;;;;10.20;8.98;;;0.10;70.80;;;;;;5052048;28;20385;-55
2023/01/13 05:45:21;;;;;;;12.27;10.10;;;0.20;70.90;;;;;;5042457;28;20052;-59
2023/01/13 05:47:47;;;;;;;11.60;9.43;;;0.20;70.90;;;;;;5051940;28;20036;-59
2023/01/13 05:50:12;;;;;;;12.48;9.50;;;0.30;70.90;;;;;;5053557;28;20370;-59
2023/01/13 05:52:38;;;;;;;11.55;9.25;;;0.30;70.80;;;;;;5050126;28;20048;-56
2023/01/13 05:55:04;;;;;;;10.68;9.30;;;0.30;70.70;;;;;;5049661;28;20025;-54
2023/01/13 05:57:30;;;;;;;11.57;9.52;;;0.30;70.70;;;;;;5050395;28;20064;-57
2023/01/13 05:59:55;;;;;;;14.63;10.80;;;0.30;70.50;;;;;;5044403;28;20475;-58
2023/01/13 06:02:21;;;;;;;13.05;10.40;;;0.40;70.60;;;;;;5042980;28;20029;-60
2023/01/13 06:04:47;;;;;;;12.23;10.07;;;0.40;70.50;;;;;;5050518;28;20028;-58
2023/01/13 06:07:13;;;;;;;12.02;9.98;;;0.40;70.50;;;;;;5049877;28;20040;-58
2023/01/13 06:09:39;;;;;;;13.32;9.85;;;0.40;70.40;;;;;;5049155;28;20029;-57
2023/01/13 06:12:05;;;;;;;13.80;10.23;;;0.40;70.60;;;;;;5049055;28;20391;-58
2023/01/13 06:14:39;;;;;;;11.88;9.93;;;0.40;70.60;;;;;;5048791;28;20037;-58
2023/01/13 06:17:08;;;;;;;13.88;11.25;;;0.50;70.70;;;;;;5035810;28;20349;-58
2023/01/13 06:19:34;;;;;;;15.98;11.57;;;0.60;70.60;;;;;;5036310;28;20041;-57
2023/01/13 06:22:09;;;;;;;13.60;10.65;;;0.60;70.70;;;;;;5047109;28;20032;-57
2023/01/13 06:24:35;;;;;;;11.82;10.15;;;0.60;70.50;;;;;;5053502;28;20483;-57
2023/01/13 06:27:01;;;;;;;13.60;10.93;;;0.60;70.30;;;;;;5048515;28;20030;-54
2023/01/13 06:29:26;;;;;;;12.48;9.32;;;0.70;70.20;;;;;;5046744;28;20033;-54
2023/01/13 06:31:52;;;;;;;16.33;10.88;;;0.70;70.20;;;;;;5051668;28;20063;-56
2023/01/13 06:34:18;;;;;;;13.85;10.82;;;0.70;70.20;;;;;;5045247;28;20391;-52
2023/01/13 06:36:49;;;;;;;13.55;11.50;;;0.70;70.50;;;;;;5049068;28;20258;-54
2023/01/13 06:39:18;;;;;;;15.45;12.10;;;0.60;69.80;;;;;;5039927;28;20112;-59
2023/01/13 06:44:31;;;;;;;17.55;12.48;;;0.60;70.00;;;;;;5051160;28;20074;-59
2023/01/13 06:46:57;;;;;;;12.10;10.10;;;0.60;69.70;;;;;;5043742;28;20029;-60
2023/01/13 06:49:23;;;;;;;14.10;10.60;;;0.50;69.50;;;;;;5048010;28;20515;-57
2023/01/13 06:51:49;;;;;;;14.00;11.20;;;0.40;69.50;;;;;;5052491;28;20021;-59
2023/01/13 06:54:14;;;;;;;16.35;12.35;;;0.40;69.60;;;;;;5051823;28;20082;-58
2023/01/13 06:56:40;;;;;;;19.15;12.75;;;0.30;69.70;;;;;;5047937;28;20033;-56
2023/01/13 06:59:06;;;;;;;15.85;12.82;;;0.20;69.70;;;;;;5041627;28;20060;-59
2023/01/13 07:01:31;;;;;;;16.17;12.38;;;0.10;69.80;;;;;;5036543;28;20036;-56
2023/01/13 07:03:57;;;;;;;15.23;12.00;;;0.10;70.10;;;;;;5037749;28;20103;-58
2023/01/13 07:06:23;;;;;;;16.25;11.43;;;0.10;70.40;;;;;;5045869;28;20124;-58
2023/01/13 07:08:49;;;;;;;14.23;10.40;;;0.00;70.50;;;;;;5046262;28;20077;-58
2023/01/13 07:11:15;;;;;;;14.18;11.52;;;0.10;70.50;;;;;;5047424;28;20028;-58
2023/01/13 07:16:26;;;;;;;13.98;10.05;;;0.10;70.50;;;;;;5045851;28;20090;-58
2023/01/13 07:18:53;;;;;;;13.30;10.55;;;0.10;70.50;;;;;;5050120;28;20021;-58
2023/01/13 07:21:19;;;;;;;11.45;9.15;;;0.20;70.30;;;;;;5056531;28;20035;-58
2023/01/13 07:23:46;;;;;;;10.63;8.63;;;0.20;70.40;;;;;;5036857;28;20114;-60
2023/01/13 07:26:12;;;;;;;13.07;9.30;;;0.20;70.40;;;;;;5046526;28;20040;-57
2023/01/13 07:28:38;;;;;;;11.70;9.07;;;0.20;70.50;;;;;;5031629;28;20514;-57
2023/01/13 07:31:05;;;;;;;14.35;11.07;;;0.30;70.40;;;;;;5039023;28;20090;-58
2023/01/13 07:33:32;;;;;;;15.73;10.90;;;0.30;70.10;;;;;;5043599;28;20041;-58
2023/01/13 07:36:03;;;;;;;13.30;9.82;;;0.20;69.80;;;;;;5034865;28;20025;-59
2023/01/13 07:38:29;;;;;;;13.95;10.43;;;0.10;69.70;;;;;;5038933;28;20057;-58
2023/01/13 07:40:55;;;;;;;12.73;9.50;;;0.00;69.90;;;;;;5040880;28;20048;-57
2023/01/13 07:43:32;;;;;;;11.68;9.65;;;-0.10;70.20;;;;;;5038687;28;20099;-58
2023/01/13 07:46:03;;;;;;;15.23;10.93;;;-0.10;70.70;;;;;;5033391;28;20029;-57
2023/01/13 07:48:30;;;;;;;13.43;10.13;;;-0.10;70.90;;;;;;5029657;28;20025;-58
2023/01/13 07:50:59;;;;;;;14.52;10.60;;;-0.10;71.10;;;;;;5033373;28;20021;-58
2023/01/13 07:53:25;;;;;;;14.20;10.77;;;0.00;71.30;;;;;;5030609;28;20037;-57
2023/01/13 07:55:55;;;;;;;11.05;8.68;;;0.20;71.30;;;;;;5038171;28;20056;-58
2023/01/13 07:58:21;;;;;;;12.35;9.52;;;0.20;71.00;;;;;;5032549;28;20055;-58
2023/01/13 08:00:47;;;;;;;9.73;8.38;;;0.30;70.80;;;;;;5033467;28;20100;-58
2023/01/13 08:03:12;;;;;;;11.55;9.07;;;0.30;70.70;;;;;;5029759;28;20141;-58
2023/01/13 08:05:38;;;;;;;11.10;8.93;;;0.40;70.50;;;;;;5027751;28;20838;-57
2023/01/13 08:08:04;;;;;;;11.77;7.90;;;0.40;70.50;;;;;;5024141;28;20029;-57
2023/01/13 08:10:30;;;;;;;10.85;8.40;;;0.40;70.40;;;;;;5024143;28;20037;-59
2023/01/13 08:15:40;;;;;;;10.80;8.48;;;0.50;70.40;;;;;;5031076;28;20375;-58
2023/01/13 08:18:05;;;;;;;10.63;9.02;;;0.60;70.50;;;;;;5022657;28;20042;-58
2023/01/13 08:20:31;;;;;;;12.93;10.25;;;0.60;70.40;;;;;;5025472;28;20139;-57
2023/01/13 08:22:59;;;;;;;15.70;10.80;;;0.70;70.30;;;;;;5028110;28;20080;-58
2023/01/13 08:25:27;;;;;;;10.13;8.77;;;0.80;70.00;;;;;;5017437;28;20033;-57
2023/01/13 08:27:53;;;;;;;11.85;8.50;;;0.80;69.50;;;;;;5019169;28;20068;-57
2023/01/13 08:30:20;;;;;;;13.43;9.32;;;0.70;69.40;;;;;;5024470;28;20047;-58
2023/01/13 08:32:47;;;;;;;12.50;9.07;;;0.60;69.40;;;;;;5018992;28;20033;-58
2023/01/13 08:35:14;;;;;;;10.57;7.97;;;0.50;69.40;;;;;;5012216;28;20069;-59
2023/01/13 08:37:39;;;;;;;12.18;9.48;;;0.40;69.50;;;;;;5010922;28;20063;-59
2023/01/13 08:40:07;;;;;;;10.50;8.50;;;0.30;69.90;;;;;;5014944;28;20876;-58
2023/01/13 08:42:32;;;;;;;16.55;11.45;;;0.20;70.10;;;;;;5025866;28;20061;-58
2023/01/13 08:44:58;;;;;;;13.88;10.25;;;0.20;70.40;;;;;;5015167;28;20744;-59
2023/01/13 08:47:25;;;;;;;16.23;11.57;;;0.10;70.50;;;;;;5014702;28;20040;-57
2023/01/13 08:49:51;;;;;;;16.02;12.65;;;0.10;70.60;;;;;;5016331;28;20761;-57
2023/01/13 08:52:16;;;;;;;13.90;11.65;;;0.20;70.80;;;;;;5018239;28;20037;-58
2023/01/13 08:54:42;;;;;;;13.65;10.70;;;0.20;70.80;;;;;;5020530;28;20037;-57
2023/01/13 08:57:08;;;;;;;13.50;9.65;;;0.30;71.00;;;;;;5008387;28;20032;-57
2023/01/13 08:59:34;;;;;;;13.40;10.88;;;0.30;71.00;;;;;;5017751;28;20808;-57
2023/01/13 09:01:59;;;;;;;16.70;12.80;;;0.40;70.80;;;;;;5026027;28;20071;-56
2023/01/13 09:04:27;;;;;;;15.70;11.43;;;0.40;70.40;;;;;;5037649;28;20471;-57
2023/01/13 09:06:53;;;;;;;10.43;9.15;;;0.40;70.20;;;;;;5021854;28;20059;-58
2023/01/13 09:09:20;;;;;;;13.10;10.05;;;0.40;70.30;;;;;;5021294;28;20032;-59
2023/01/13 09:14:35;;;;;;;11.70;9.80;;;0.40;70.10;;;;;;5020237;28;20041;-59
2023/01/13 09:17:01;;;;;;;11.57;9.45;;;0.30;70.60;;;;;;5017630;28;20172;-59
2023/01/13 09:19:28;;;;;;;13.15;9.57;;;0.30;70.10;;;;;;5020222;28;20065;-58
2023/01/13 09:21:55;;;;;;;12.40;9.80;;;0.20;70.20;;;;;;5021041;28;20040;-59
2023/01/13 09:24:21;;;;;;;14.38;10.40;;;0.20;70.30;;;;;;5014822;28;20464;-60
2023/01/13 09:26:47;;;;;;;14.63;10.57;;;0.10;70.40;;;;;;5015534;28;20025;-58
2023/01/13 09:29:13;;;;;;;13.20;9.38;;;0.10;70.80;;;;;;5009097;28;20056;-57
2023/01/13 09:31:40;;;;;;;9.52;8.20;;;0.10;70.90;;;;;;5007067;28;20029;-59
2023/01/13 09:36:50;;;;;;;12.30;8.82;;;0.20;71.30;;;;;;5017237;28;20131;-58
2023/01/13 09:39:16;;;;;;;12.18;9.02;;;0.30;71.10;;;;;;5018331;28;20261;-59
2023/01/13 09:44:48;;;;;;;12.25;9.63;;;0.30;71.00;;;;;;5020076;28;20060;-58
2023/01/13 09:47:26;;;;;;;12.70;9.13;;;0.30;70.80;;;;;;5022625;28;20029;-58
2023/01/13 09:50:02;;;;;;;13.48;9.77;;;0.40;70.80;;;;;;5028117;28;20033;-57
2023/01/13 09:52:28;;;;;;;12.48;9.40;;;0.40;70.80;;;;;;5017840;28;20474;-59
2023/01/13 09:55:02;;;;;;;13.18;9.93;;;0.40;70.90;;;;;;5024732;28;20123;-59
2023/01/13 09:57:33;;;;;;;11.90;8.95;;;0.40;70.80;;;;;;5025870;28;20140;-57
2023/01/13 09:59:58;;;;;;;11.13;8.75;;;0.40;70.80;;;;;;5024768;28;20029;-58
2023/01/13 10:02:43;;;;;;;11.35;9.90;;;0.40;70.70;;;;;;5017451;28;20483;-58
2023/01/13 10:05:31;;;;;;;10.25;8.00;;;0.30;70.70;;;;;;5015419;28;20052;-59
2023/01/13 10:08:04;;;;;;;10.43;8.45;;;0.30;71.10;;;;;;5027982;28;20028;-58
2023/01/13 10:10:56;;;;;;;12.32;9.35;;;0.30;71.20;;;;;;5020864;28;20037;-59
2023/01/13 10:13:30;;;;;;;12.90;8.88;;;0.30;71.20;;;;;;5015196;28;20152;-58
2023/01/13 10:16:07;;;;;;;13.85;9.50;;;0.40;71.50;;;;;;5025119;28;20135;-58
2023/01/13 10:18:51;;;;;;;12.32;8.98;;;0.40;71.70;;;;;;5022728;28;20839;-58
2023/01/13 10:21:31;;;;;;;8.30;7.40;;;0.50;71.50;;;;;;5024009;28;20037;-58
2023/01/13 10:24:29;;;;;;;14.15;9.48;;;0.60;71.40;;;;;;5026955;28;20037;-58
2023/01/13 10:27:03;;;;;;;13.05;10.23;;;0.70;71.20;;;;;;5025866;28;20457;-58
2023/01/13 10:29:30;;;;;;;10.52;9.02;;;0.80;71.10;;;;;;5019737;28;20029;-58
2023/01/13 10:31:58;;;;;;;15.07;10.95;;;0.90;71.00;;;;;;5020727;28;20896;-58
2023/01/13 10:34:26;;;;;;;10.52;8.73;;;1.00;70.70;;;;;;5017652;28;21263;-59
2023/01/13 10:37:06;;;;;;;10.70;8.43;;;1.10;70.60;;;;;;5011282;28;20034;-58
2023/01/13 10:39:40;;;;;;;11.00;9.18;;;1.20;70.50;;;;;;5025713;28;20095;-59
2023/01/13 10:42:18;;;;;;;11.45;8.93;;;1.30;70.50;;;;;;5019004;28;20045;-57
2023/01/13 10:45:00;;;;;;;9.73;8.13;;;1.40;70.40;;;;;;5023300;28;20046;-59
2023/01/13 10:47:30;;;;;;;10.63;8.45;;;1.50;70.10;;;;;;5015565;28;20033;-60
2023/01/13 10:50:07;;;;;;;12.77;9.38;;;1.60;69.80;;;;;;5019763;28;20068;-58
2023/01/13 10:52:37;;;;;;;11.43;9.30;;;1.70;69.40;;;;;;5026973;28;20710;-59
2023/01/13 10:55:04;;;;;;;10.57;8.73;;;1.80;69.40;;;;;;5023735;28;20037;-61
2023/01/13 10:57:35;;;;;;;9.20;8.07;;;1.80;69.10;;;;;;5024940;28;20045;-62
2023/01/13 11:00:03;;;;;;;12.03;8.30;;;1.80;68.90;;;;;;5027217;28;20033;-62
2023/01/13 11:02:31;;;;;;;14.57;9.40;;;1.90;68.80;;;;;;5016309;28;21578;-57
2023/01/13 11:05:01;;;;;;;11.40;9.23;;;1.80;68.40;;;;;;5020966;28;20041;-63
2023/01/13 11:07:40;;;;;;;13.57;11.23;;;1.80;68.40;;;;;;5019450;28;20482;-59
2023/01/13 11:10:15;;;;;;;13.18;10.20;;;1.70;68.20;;;;;;5017920;28;20042;-62
2023/01/13 11:12:55;;;;;;;13.80;10.05;;;1.70;68.40;;;;;;5021640;28;20036;-58
2023/01/13 11:15:37;;;;;;;14.90;10.45;;;1.70;68.70;;;;;;5017158;28;20696;-60
2023/01/13 11:18:08;;;;;;;11.80;9.75;;;1.70;68.90;;;;;;5065509;28;20062;-60
2023/01/13 11:20:40;;;;;;;10.48;8.27;;;1.80;68.80;;;;;;5032385;28;20041;-56
2023/01/13 11:23:34;;;;;;;12.05;9.82;;;1.90;68.80;;;;;;5027313;28;20587;-57
2023/01/13 11:26:07;;;;;;;13.23;9.77;;;1.90;68.60;;;;;;5030763;28;20793;-56
2023/01/13 11:28:46;;;;;;;14.73;10.48;;;2.00;68.60;;;;;;5026537;28;20048;-58
2023/01/13 11:31:21;;;;;;;14.88;11.07;;;2.10;68.30;;;;;;5027086;28;20033;-58
2023/01/13 11:34:28;;;;;;;14.85;11.40;;;2.20;68.10;;;;;;5025174;28;20041;-57
2023/01/13 11:36:57;;;;;;;14.43;11.32;;;2.20;67.60;;;;;;5023042;28;20041;-58
2023/01/13 11:39:41;;;;;;;20.40;13.93;;;2.20;67.70;;;;;;5028966;28;20090;-62
2023/01/13 11:42:48;;;;;;;15.25;11.55;;;2.20;67.60;;;;;;5039062;28;20032;-61
2023/01/13 11:45:32;;;;;;;15.80;12.00;;;2.10;67.50;;;;;;5020907;28;20439;-60
2023/01/13 11:48:01;;;;;;;12.48;10.18;;;2.20;67.70;;;;;;5027222;28;20043;-58
2023/01/13 11:50:53;;;;;;;12.05;10.02;;;2.20;67.70;;;;;;5029323;28;20099;-62
2023/01/13 11:53:56;;;;;;;13.25;10.23;;;2.20;67.80;;;;;;5035067;28;20032;-59
2023/01/13 11:56:31;;;;;;;14.60;10.63;;;2.20;67.50;;;;;;5025353;28;20053;-61
2023/01/13 11:59:11;;;;;;;12.57;10.02;;;2.20;67.40;;;;;;5018244;28;20040;-58
2023/01/13 12:01:58;;;;;;;12.63;10.25;;;2.20;67.10;;;;;;5020821;28;20104;-59
2023/01/13 12:04:35;;;;;;;14.18;10.05;;;2.20;67.20;;;;;;5026053;28;20025;-61
2023/01/13 12:07:34;;;;;;;11.73;9.18;;;2.10;67.10;;;;;;5012015;28;20033;-58
2023/01/13 12:10:18;;;;;;;12.88;10.27;;;2.10;67.30;;;;;;5008108;28;20135;-58
2023/01/13 12:13:16;;;;;;;12.75;9.68;;;2.20;67.20;;;;;;5024313;28;20083;-58
2023/01/13 12:16:05;;;;;;;13.15;9.95;;;2.20;67.10;;;;;;5030656;28;20282;-60
2023/01/13 12:19:06;;;;;;;25.42;14.77;;;2.20;67.20;;;;;;5022801;28;20159;-58
2023/01/13 12:21:39;;;;;;;18.67;11.50;;;2.20;67.00;;;;;;5022072;28;20162;-60
2023/01/13 12:24:21;;;;;;;13.90;10.93;;;2.20;66.90;;;;;;5032768;28;20037;-59
2023/01/13 12:26:56;;;;;;;14.23;10.18;;;2.20;67.00;;;;;;5015362;28;20047;-58
2023/01/13 12:29:33;;;;;;;13.80;10.02;;;2.20;67.00;;;;;;5024544;28;20038;-58
2023/01/13 12:32:03;;;;;;;13.13;10.25;;;2.20;66.90;;;;;;5019102;28;20025;-58
2023/01/13 12:34:35;;;;;;;15.13;9.32;;;2.20;66.70;;;;;;5015849;28;20041;-60
2023/01/13 12:37:01;;;;;;;;;;;2.20;66.70;;;;;;5010620;28;20029;-61
2023/01/13 12:39:44;;;;;;;14.88;9.60;;;2.10;66.70;;;;;;5003275;28;19916;-62
2023/01/13 12:45:39;;;;;;;15.25;10.80;;;2.10;67.10;;;;;;4989959;28;20088;-61
2023/01/13 12:48:05;;;;;;;11.68;9.38;;;2.10;67.20;;;;;;5019644;28;20063;-57
2023/01/13 12:50:31;;;;;;;12.02;9.50;;;2.20;67.00;;;;;;5023000;28;20108;-58
2023/01/13 12:53:22;;;;;;;12.45;9.93;;;2.20;67.00;;;;;;5021579;28;20694;-60
2023/01/13 12:55:51;;;;;;;11.15;8.82;;;2.20;67.00;;;;;;5019615;28;20071;-63
2023/01/13 12:58:23;;;;;;;10.90;8.40;;;2.30;67.10;;;;;;5021277;28;20049;-60
2023/01/13 13:00:58;;;;;;;12.98;10.93;;;2.30;67.10;;;;;;5012426;28;20122;-59
2023/01/13 13:03:31;;;;;;;17.38;11.77;;;2.40;67.20;;;;;;5016724;28;20367;-61
2023/01/13 13:06:12;;;;;;;18.17;12.55;;;2.40;66.90;;;;;;5019127;28;20808;-58
2023/01/13 13:09:16;;;;;;;15.07;12.65;;;2.40;66.60;;;;;;5016537;28;20485;-60
2023/01/13 13:14:36;;;;;;;15.82;11.07;;;2.40;66.30;;;;;;5020400;28;20434;-59
2023/01/13 13:17:03;;;;;;;15.45;10.98;;;2.20;66.20;;;;;;5012773;28;20495;-58
2023/01/13 13:19:29;;;;;;;15.43;11.40;;;2.10;66.30;;;;;;5018597;28;20120;-59
2023/01/13 13:22:15;;;;;;;16.67;11.90;;;2.10;66.50;;;;;;5019631;28;20714;-57
2023/01/13 13:24:50;;;;;;;16.10;11.15;;;1.90;66.50;;;;;;5021599;28;20040;-56
2023/01/13 13:27:37;;;;;;;12.13;9.27;;;1.80;66.80;;;;;;5026685;28;20077;-61
2023/01/13 13:30:25;;;;;;;13.63;10.57;;;1.70;67.10;;;;;;5022173;28;22090;-59
2023/01/13 13:33:19;;;;;;;12.70;9.15;;;1.60;67.30;;;;;;5009819;28;20032;-62
2023/01/13 13:36:11;;;;;;;12.25;9.43;;;1.60;67.60;;;;;;5023728;28;22653;-58
2023/01/13 13:47:21;;;;;;;13.32;9.40;;;1.60;68.10;;;;;;5021722;28;20045;-56
2023/01/13 13:49:53;;;;;;;13.35;10.18;;;1.60;68.20;;;;;;5020512;28;20114;-59
2023/01/13 13:52:40;;;;;;;13.25;10.50;;;1.70;68.20;;;;;;5025001;28;20172;-60
2023/01/13 13:55:17;;;;;;;15.25;11.77;;;1.70;68.30;;;;;;5019048;28;20167;-57
2023/01/13 13:57:46;;;;;;;16.95;12.70;;;1.80;68.20;;;;;;5024159;28;20567;-61
2023/01/13 14:00:29;;;;;;;19.75;14.05;;;1.80;68.00;;;;;;5016642;28;20033;-62
2023/01/13 14:03:03;;;;;;;17.70;14.30;;;1.80;67.90;;;;;;5002670;28;20147;-58
2023/01/13 14:05:31;;;;;;;23.58;16.05;;;1.80;67.90;;;;;;5020452;28;20088;-59
2023/01/13 14:08:08;;;;;;;18.90;12.65;;;1.90;68.00;;;;;;5017935;28;20029;-57